Time;durP1;ratioP1;P1;durP2;ratioP2;P2;SDS_P1;SDS_P2;PMS_P1;PMS_P2;Temp;Humidity;BMP_temperature;BMP_pressure;BME280_temperature;BME280_humidity;BME280_pressure;Samples;Min_cycle;Max_cycle;Signal;HPM_P1;HPM_P2
2024/03/17 01:56:34;;;;;;;;;;;;;;;;;;;;;
2024/03/17 02:23:35;;;;;;;10.43;9.73;;;12.30;26.20;;;;;;4873876;29;20506;-80
2024/03/17 02:30:33;;;;;;;;;;;;;;;;;;;;;
2024/03/17 02:37:51;;;;;;;10.77;10.07;;;12.10;26.50;;;;;;4748556;30;20586;-80
2024/03/17 02:40:52;;;;;;;11.10;10.30;;;12.10;26.50;;;;;;4735419;30;20556;-80
2024/03/17 02:47:33;;;;;;;10.40;9.90;;;12.20;26.40;;;;;;4752059;30;20902;-81
2024/03/17 02:54:03;;;;;;;;;;;;;;;;;;;;;
2024/03/17 03:08:05;;;;;;;12.20;11.40;;;12.00;26.40;;;;;;4744314;30;20606;-80
2024/03/17 03:11:05;;;;;;;11.97;11.27;;;12.00;26.10;;;;;;4747954;30;20482;-80
2024/03/17 03:46:57;;;;;;;;;;;;;;;;;;;;;
2024/03/17 03:50:42;;;;;;;14.50;13.60;;;11.60;29.20;;;;;;4693454;30;20448;-81
2024/03/17 04:20:30;;;;;;;;;;;;;;;;;;;;;
2024/03/17 04:30:48;;;;;;;14.50;13.50;;;11.30;30.60;;;;;;4693441;30;20482;-80
2024/03/17 04:38:05;;;;;;;15.10;14.00;;;11.10;31.40;;;;;;4706337;30;20464;-81
2024/03/17 06:27:35;;;;;;;14.27;13.37;;;10.40;31.80;;;;;;4974724;23;20537;-80
2024/03/17 06:30:27;;;;;;;14.30;13.47;;;10.30;31.70;;;;;;4940041;29;20462;-81
2024/03/17 06:33:52;;;;;;;14.80;13.87;;;10.30;32.20;;;;;;4942238;29;20431;-80
2024/03/17 06:44:29;;;;;;;;;;;;;;;;;;;;;
2024/03/17 06:51:35;;;;;;;14.60;13.60;;;10.00;33.70;;;;;;4778274;29;20425;-81
2024/03/17 06:54:42;;;;;;;;;;;;;;;;;;;;;
2024/03/17 06:57:41;;;;;;;13.60;12.70;;;10.20;34.10;;;;;;4741496;30;20455;-82
2024/03/17 07:00:16;;;;;;;13.80;12.90;;;10.20;33.50;;;;;;4749801;29;20440;-82
2024/03/17 07:02:55;;;;;;;13.80;12.87;;;10.10;34.30;;;;;;4809182;29;20433;-83
2024/03/17 07:05:20;;;;;;;14.40;13.50;;;10.00;34.70;;;;;;4834295;29;20833;-81
2024/03/17 07:08:15;;;;;;;13.67;12.70;;;10.00;35.10;;;;;;4902405;29;20448;-82
2024/03/17 07:14:16;;;;;;;13.80;13.00;;;10.50;33.90;;;;;;4902710;29;21053;-82
2024/03/17 07:17:03;;;;;;;13.90;12.73;;;10.40;33.20;;;;;;4898551;29;20480;-83
2024/03/17 07:20:09;;;;;;;13.47;12.63;;;10.60;32.80;;;;;;4901285;29;20450;-83
2024/03/17 07:23:20;;;;;;;14.33;13.43;;;10.90;32.30;;;;;;4870455;29;20442;-82
2024/03/17 07:25:55;;;;;;;15.87;14.87;;;11.00;31.30;;;;;;4908708;29;20440;-81
2024/03/17 07:28:22;;;;;;;16.07;14.97;;;11.00;30.60;;;;;;4913928;29;20469;-82
2024/03/17 07:31:07;;;;;;;14.00;13.03;;;11.10;30.50;;;;;;4907450;29;20427;-82
2024/03/17 07:33:35;;;;;;;13.90;13.00;;;11.00;30.40;;;;;;4926030;29;20475;-81
2024/03/17 07:37:15;;;;;;;13.47;12.67;;;11.00;31.90;;;;;;4934518;29;20503;-82
2024/03/17 07:40:04;;;;;;;14.07;13.17;;;11.10;31.90;;;;;;4867520;29;20429;-80
2024/03/17 07:42:31;;;;;;;14.70;13.80;;;11.30;30.20;;;;;;4908727;29;20436;-80
2024/03/17 07:45:08;;;;;;;13.67;12.87;;;11.20;30.50;;;;;;4920967;29;20435;-81
2024/03/17 07:47:44;;;;;;;14.77;13.87;;;11.20;30.30;;;;;;4920594;29;20885;-80
2024/03/17 07:50:19;;;;;;;14.00;13.07;;;11.10;30.70;;;;;;4909011;29;20801;-82
2024/03/17 07:52:45;;;;;;;15.47;14.47;;;11.10;31.20;;;;;;4910825;29;20434;-82
2024/03/17 07:55:13;;;;;;;15.13;14.00;;;11.10;30.90;;;;;;4914064;29;21009;-81
2024/03/17 07:57:48;;;;;;;15.10;14.17;;;11.30;31.10;;;;;;4908047;29;20582;-79
2024/03/17 08:00:17;;;;;;;13.97;13.17;;;11.40;30.30;;;;;;4936237;29;20516;-80
2024/03/17 08:02:48;;;;;;;16.40;15.20;;;11.50;30.00;;;;;;4902367;29;20929;-80
2024/03/17 08:21:54;;;;;;;15.67;14.50;;;11.90;29.10;;;;;;4843332;29;20432;-81
2024/03/17 08:24:19;;;;;;;17.20;16.10;;;11.90;29.50;;;;;;4867884;29;20559;-81
2024/03/17 08:26:45;;;;;;;18.10;16.90;;;11.80;29.50;;;;;;4896309;29;20478;-81
2024/03/17 08:29:11;;;;;;;16.47;15.30;;;11.80;30.20;;;;;;4911239;29;20262;-80
2024/03/17 08:31:39;;;;;;;15.63;14.67;;;11.80;29.80;;;;;;4933679;29;20590;-81
2024/03/17 08:34:05;;;;;;;15.63;14.60;;;11.90;29.90;;;;;;4938622;29;20412;-82
2024/03/17 08:36:31;;;;;;;16.53;15.40;;;11.80;30.00;;;;;;4943079;29;20469;-81
2024/03/17 08:38:58;;;;;;;16.80;15.70;;;11.80;30.40;;;;;;4959146;29;20184;-80
2024/03/17 08:41:24;;;;;;;16.37;15.30;;;11.70;30.90;;;;;;4941109;29;20184;-80
2024/03/17 08:43:49;;;;;;;15.83;14.73;;;11.70;31.00;;;;;;4955909;29;20412;-80
2024/03/17 08:46:15;;;;;;;14.93;13.83;;;11.80;31.30;;;;;;4938409;29;20199;-78
2024/03/17 08:48:42;;;;;;;16.93;15.73;;;12.00;30.20;;;;;;4948564;29;20188;-80
2024/03/17 08:51:08;;;;;;;15.60;14.60;;;12.00;30.00;;;;;;4937720;29;20187;-79
2024/03/17 08:53:35;;;;;;;17.37;15.90;;;12.00;29.80;;;;;;4931357;29;20696;-80
2024/03/17 08:56:02;;;;;;;15.27;14.27;;;12.00;30.00;;;;;;4917243;29;20837;-78
2024/03/17 08:58:28;;;;;;;15.70;14.50;;;11.90;30.00;;;;;;4937291;29;20428;-81
2024/03/17 09:00:53;;;;;;;15.13;14.13;;;12.00;30.00;;;;;;4937280;29;20427;-80
2024/03/17 09:03:19;;;;;;;16.80;15.73;;;12.10;30.00;;;;;;4919142;29;20706;-81
2024/03/17 09:05:46;;;;;;;15.37;14.47;;;12.20;29.70;;;;;;4922288;29;20188;-81
2024/03/17 09:08:20;;;;;;;14.70;13.70;;;12.40;29.30;;;;;;4936299;29;20996;-80
2024/03/17 09:10:46;;;;;;;15.50;14.30;;;12.50;29.00;;;;;;4937019;29;20419;-80
2024/03/17 09:13:17;;;;;;;14.43;13.43;;;12.50;28.40;;;;;;4927070;29;20527;-79
2024/03/17 09:15:59;;;;;;;15.00;14.00;;;12.60;28.60;;;;;;4915273;29;20479;-81
2024/03/17 09:18:32;;;;;;;15.47;14.57;;;12.60;28.40;;;;;;4964503;23;20498;-77
2024/03/17 09:21:08;;;;;;;14.40;13.50;;;12.70;28.00;;;;;;4950084;29;20451;-79
2024/03/17 09:23:34;;;;;;;14.70;13.60;;;12.80;28.00;;;;;;4934133;29;20434;-79
2024/03/17 09:26:05;;;;;;;13.30;12.47;;;12.90;27.30;;;;;;4936473;29;20467;-79
2024/03/17 09:28:32;;;;;;;13.57;12.77;;;12.90;26.70;;;;;;4944071;29;20862;-78
2024/03/17 09:30:58;;;;;;;12.50;11.80;;;12.90;27.10;;;;;;4921789;29;20436;-79
2024/03/17 09:33:25;;;;;;;13.07;12.37;;;12.80;27.30;;;;;;4920225;29;20435;-80
2024/03/17 09:36:01;;;;;;;12.27;11.33;;;12.70;27.50;;;;;;4939573;29;20474;-80
2024/03/17 09:38:28;;;;;;;11.00;10.20;;;12.90;26.90;;;;;;4925565;29;20443;-79
2024/03/17 09:41:00;;;;;;;13.83;12.70;;;12.90;25.50;;;;;;4922228;29;20464;-80
2024/03/17 09:43:28;;;;;;;11.60;10.97;;;12.90;26.10;;;;;;4939332;29;20443;-79
2024/03/17 09:45:57;;;;;;;13.20;12.40;;;13.10;25.60;;;;;;4923097;29;20440;-79
2024/03/17 09:48:24;;;;;;;10.87;10.17;;;13.20;25.40;;;;;;4939136;29;20455;-80
2024/03/17 09:50:54;;;;;;;10.70;10.00;;;13.20;25.40;;;;;;4923178;29;20455;-79
2024/03/17 09:53:26;;;;;;;10.70;9.90;;;13.40;24.10;;;;;;4923148;29;20439;-79
2024/03/17 09:55:56;;;;;;;9.90;9.30;;;13.40;23.60;;;;;;4940538;29;20486;-80
2024/03/17 09:58:22;;;;;;;10.40;9.80;;;13.20;22.40;;;;;;4924019;29;20539;-80
2024/03/17 10:00:47;;;;;;;9.60;8.93;;;13.10;22.40;;;;;;4932230;29;20459;-78
2024/03/17 10:03:42;;;;;;;10.37;9.77;;;13.00;21.80;;;;;;4940380;29;20227;-79
2024/03/17 10:06:12;;;;;;;10.30;9.60;;;13.20;22.50;;;;;;4921527;29;20604;-79
2024/03/17 10:08:46;;;;;;;11.10;10.17;;;13.20;22.10;;;;;;4937189;29;20467;-78
2024/03/17 10:11:16;;;;;;;10.30;9.60;;;13.40;22.20;;;;;;4938865;29;20442;-79
2024/03/17 10:13:45;;;;;;;11.60;10.83;;;13.50;21.10;;;;;;4937175;29;20432;-79
2024/03/17 10:16:25;;;;;;;9.90;9.40;;;13.60;20.90;;;;;;4919808;29;20475;-78
2024/03/17 10:19:05;;;;;;;9.57;8.87;;;13.60;20.20;;;;;;4937839;29;20463;-79
2024/03/17 10:21:30;;;;;;;9.60;9.00;;;13.70;19.50;;;;;;4920392;29;20459;-79
2024/03/17 10:24:13;;;;;;;9.33;8.60;;;13.60;19.20;;;;;;4936803;29;20836;-78
2024/03/17 10:26:43;;;;;;;8.80;8.30;;;13.70;19.80;;;;;;4914516;29;20200;-79
2024/03/17 10:29:24;;;;;;;9.90;9.20;;;13.90;18.70;;;;;;4937929;29;20435;-79
2024/03/17 10:31:55;;;;;;;8.73;7.97;;;13.90;18.10;;;;;;4938547;29;20436;-80
2024/03/17 10:34:24;;;;;;;8.83;8.33;;;13.80;18.30;;;;;;4938413;29;20437;-79
2024/03/17 10:36:51;;;;;;;8.60;8.20;;;13.90;17.50;;;;;;4938752;29;20471;-80
2024/03/17 10:39:28;;;;;;;8.43;7.93;;;13.70;17.60;;;;;;4921468;29;20436;-79
2024/03/17 10:42:00;;;;;;;7.80;7.40;;;13.80;18.40;;;;;;4938824;29;20896;-79
2024/03/17 10:44:34;;;;;;;7.77;7.27;;;13.90;17.60;;;;;;4930528;29;20527;-80
2024/03/17 10:47:01;;;;;;;8.03;7.57;;;14.00;17.60;;;;;;4922163;29;20503;-78
2024/03/17 10:49:32;;;;;;;8.17;7.67;;;14.00;17.20;;;;;;4936800;29;20901;-80
2024/03/17 10:52:06;;;;;;;8.63;8.00;;;14.10;17.10;;;;;;4934963;29;20468;-79
2024/03/17 10:54:32;;;;;;;8.30;7.70;;;14.20;17.40;;;;;;4913717;29;20943;-79
2024/03/17 10:57:25;;;;;;;8.63;8.23;;;14.20;15.70;;;;;;4940820;29;20467;-80
2024/03/17 10:59:52;;;;;;;8.33;7.80;;;14.20;16.60;;;;;;4941917;29;20428;-79
2024/03/17 11:02:28;;;;;;;9.23;8.53;;;14.40;16.00;;;;;;4922945;29;20439;-79
2024/03/17 11:04:59;;;;;;;8.33;7.93;;;14.50;16.30;;;;;;4910676;29;20434;-79
2024/03/17 11:07:26;;;;;;;9.20;8.57;;;14.50;16.00;;;;;;4908924;29;20455;-79
2024/03/17 11:09:54;;;;;;;8.47;7.97;;;14.50;16.10;;;;;;4930016;29;20428;-79
2024/03/17 11:12:46;;;;;;;8.60;8.10;;;14.50;16.10;;;;;;4914795;29;21025;-79
2024/03/17 11:18:07;;;;;;;8.40;7.80;;;14.60;16.10;;;;;;4941924;29;20539;-79
2024/03/17 11:20:34;;;;;;;9.97;9.37;;;14.70;15.60;;;;;;4930886;29;20782;-79
2024/03/17 11:23:00;;;;;;;7.87;7.37;;;14.60;15.50;;;;;;4947985;29;20431;-80
2024/03/17 11:25:25;;;;;;;6.77;6.47;;;14.60;15.40;;;;;;4929456;29;20551;-79
2024/03/17 11:27:55;;;;;;;7.20;6.90;;;14.60;15.10;;;;;;4920405;29;20551;-79
2024/03/17 11:30:43;;;;;;;7.10;6.70;;;14.60;14.80;;;;;;4944279;29;20261;-80
2024/03/17 11:33:36;;;;;;;6.93;6.53;;;14.60;14.90;;;;;;4946175;29;20510;-79
2024/03/17 11:36:21;;;;;;;7.37;6.97;;;14.60;15.20;;;;;;4928562;29;20474;-79
2024/03/17 11:38:56;;;;;;;8.00;7.50;;;14.60;15.70;;;;;;4945046;29;20451;-79
2024/03/17 11:41:43;;;;;;;7.27;6.97;;;14.60;16.00;;;;;;4951477;29;20442;-79
2024/03/17 11:44:24;;;;;;;8.07;7.67;;;14.50;15.30;;;;;;4933551;29;20518;-79
2024/03/17 11:47:03;;;;;;;7.13;6.77;;;14.60;15.60;;;;;;4942718;29;20445;-79
2024/03/17 11:49:33;;;;;;;8.77;8.30;;;14.60;15.80;;;;;;4948437;29;20442;-79
2024/03/17 11:52:00;;;;;;;9.00;8.50;;;14.60;16.90;;;;;;4948404;29;20432;-79
2024/03/17 11:54:29;;;;;;;8.60;8.00;;;14.60;17.60;;;;;;4947789;29;20436;-79
2024/03/17 11:56:56;;;;;;;9.30;8.80;;;14.70;17.30;;;;;;4932078;29;20467;-80
2024/03/17 11:59:22;;;;;;;8.90;8.40;;;14.70;17.40;;;;;;4952779;29;20440;-80
2024/03/17 12:01:51;;;;;;;8.37;7.87;;;14.70;17.50;;;;;;4944534;29;20435;-79
2024/03/17 12:04:20;;;;;;;9.13;8.53;;;14.60;18.00;;;;;;4927201;29;20189;-79
2024/03/17 12:06:47;;;;;;;8.97;8.47;;;14.60;17.70;;;;;;4913876;29;20429;-79
2024/03/17 12:09:25;;;;;;;9.87;9.00;;;14.60;17.70;;;;;;4930753;29;20432;-80
2024/03/17 12:12:02;;;;;;;8.80;8.20;;;14.60;18.20;;;;;;4929385;29;20429;-79
2024/03/17 12:14:28;;;;;;;8.30;7.80;;;14.50;18.00;;;;;;4910410;29;20486;-79
2024/03/17 12:17:02;;;;;;;7.77;7.37;;;14.60;18.10;;;;;;4929095;29;20546;-79
2024/03/17 12:19:28;;;;;;;8.03;7.60;;;14.60;17.70;;;;;;4912740;29;20435;-80
2024/03/17 12:22:02;;;;;;;8.10;7.63;;;14.60;17.70;;;;;;4911913;29;20500;-79
2024/03/17 12:24:34;;;;;;;7.90;7.40;;;14.70;17.20;;;;;;4911782;29;20473;-79
2024/03/17 12:27:04;;;;;;;7.37;6.87;;;14.70;17.10;;;;;;4924906;29;20495;-80
2024/03/17 12:29:40;;;;;;;8.10;7.60;;;14.70;17.10;;;;;;4928388;29;20522;-79
2024/03/17 12:32:11;;;;;;;7.60;7.10;;;14.70;16.90;;;;;;4928269;29;20440;-79
2024/03/17 12:34:37;;;;;;;8.33;7.80;;;14.70;17.10;;;;;;4946534;29;20435;-78
2024/03/17 12:37:04;;;;;;;8.17;7.67;;;14.80;16.70;;;;;;4921064;29;20481;-79
2024/03/17 12:39:31;;;;;;;8.07;7.57;;;14.80;16.60;;;;;;4929652;29;20436;-78
2024/03/17 12:42:32;;;;;;;9.10;8.57;;;14.80;16.90;;;;;;4912385;29;20428;-79
2024/03/17 12:45:00;;;;;;;8.30;7.80;;;14.90;17.00;;;;;;4910218;29;20437;-79
2024/03/17 12:47:28;;;;;;;9.17;8.57;;;14.80;16.90;;;;;;4927258;29;20823;-79
2024/03/17 12:49:55;;;;;;;8.57;8.07;;;14.90;16.80;;;;;;4945332;29;20499;-80
2024/03/17 12:52:32;;;;;;;9.03;8.47;;;14.90;16.50;;;;;;4943877;29;20427;-79
2024/03/17 13:00:34;;;;;;;8.60;8.10;;;14.70;16.70;;;;;;4944143;29;20475;-78
2024/03/17 13:03:08;;;;;;;8.97;8.40;;;14.70;16.60;;;;;;4927990;29;20526;-79
2024/03/17 13:05:38;;;;;;;7.73;7.23;;;14.80;16.50;;;;;;4929174;29;20881;-79
2024/03/17 13:08:05;;;;;;;8.50;7.90;;;14.70;16.30;;;;;;4929067;29;20519;-80
2024/03/17 13:10:33;;;;;;;8.43;7.80;;;14.70;16.90;;;;;;4946768;29;20500;-80
2024/03/17 13:13:10;;;;;;;8.17;7.67;;;14.70;16.20;;;;;;4935889;29;20484;-80
2024/03/17 13:15:35;;;;;;;7.80;7.30;;;14.70;16.30;;;;;;4923610;29;20219;-79
2024/03/17 13:18:05;;;;;;;7.93;7.47;;;14.60;16.60;;;;;;4944664;29;20499;-78
2024/03/17 13:20:31;;;;;;;7.47;6.97;;;14.60;17.10;;;;;;4945616;29;20223;-78
2024/03/17 13:22:57;;;;;;;7.53;6.93;;;14.50;17.00;;;;;;4934574;29;20475;-79
2024/03/17 13:25:26;;;;;;;7.87;7.47;;;14.50;17.60;;;;;;4946082;29;20455;-79
2024/03/17 13:27:52;;;;;;;8.00;7.40;;;14.50;17.20;;;;;;4906216;29;20460;-79
2024/03/17 13:30:22;;;;;;;7.70;7.17;;;14.50;17.10;;;;;;4925755;29;20460;-79
2024/03/17 13:32:48;;;;;;;7.77;7.37;;;14.60;16.80;;;;;;4907182;29;20472;-79
2024/03/17 13:35:18;;;;;;;7.53;7.03;;;14.60;16.70;;;;;;4927105;29;20428;-79
2024/03/17 13:37:50;;;;;;;7.30;6.90;;;14.70;16.70;;;;;;4909223;29;20209;-79
2024/03/17 13:40:18;;;;;;;8.17;7.43;;;14.70;16.30;;;;;;4934660;29;20424;-79
2024/03/17 13:42:47;;;;;;;7.60;7.10;;;14.80;16.20;;;;;;4921338;29;20447;-80
2024/03/17 13:45:13;;;;;;;7.73;6.93;;;14.80;16.40;;;;;;4907293;29;20968;-79
2024/03/17 13:47:42;;;;;;;6.73;6.40;;;14.90;16.00;;;;;;4922719;29;20506;-80
2024/03/17 13:50:12;;;;;;;7.20;6.70;;;14.90;16.10;;;;;;4918564;29;20189;-79
2024/03/17 13:52:40;;;;;;;7.47;7.07;;;14.90;16.50;;;;;;4897006;29;20444;-80
2024/03/17 13:55:06;;;;;;;6.77;6.37;;;15.00;16.00;;;;;;4928967;29;20471;-79
2024/03/17 13:57:35;;;;;;;6.40;6.00;;;14.90;16.30;;;;;;4919790;29;20469;-79
2024/03/17 14:00:02;;;;;;;7.57;6.90;;;15.00;16.30;;;;;;4916466;29;21010;-79
2024/03/17 14:02:27;;;;;;;8.10;7.50;;;15.00;16.40;;;;;;4898907;29;20655;-79
2024/03/17 14:04:53;;;;;;;8.10;7.70;;;14.90;16.50;;;;;;4926080;29;20479;-81
2024/03/17 14:07:19;;;;;;;7.50;7.07;;;14.90;16.60;;;;;;4905129;29;20209;-82
2024/03/17 14:09:56;;;;;;;6.97;6.50;;;14.90;16.00;;;;;;4923120;29;20218;-80
2024/03/17 14:12:22;;;;;;;7.50;7.00;;;14.80;16.00;;;;;;4919138;29;20448;-79
2024/03/17 14:14:47;;;;;;;7.10;6.67;;;14.80;16.10;;;;;;4916491;29;20501;-79
2024/03/17 14:17:13;;;;;;;7.50;6.90;;;14.80;15.80;;;;;;4910041;29;20228;-81
2024/03/17 14:19:41;;;;;;;6.43;6.13;;;14.90;15.80;;;;;;4901726;29;20234;-79
2024/03/17 14:22:09;;;;;;;7.03;6.63;;;14.90;15.70;;;;;;4897331;29;20450;-82
2024/03/17 14:24:35;;;;;;;6.83;6.40;;;15.00;15.80;;;;;;4920142;29;20447;-80
2024/03/17 14:27:01;;;;;;;7.27;6.87;;;15.00;15.40;;;;;;4905064;29;20500;-80
2024/03/17 14:29:29;;;;;;;7.23;6.57;;;15.10;15.50;;;;;;4922244;29;20201;-81
2024/03/17 14:31:55;;;;;;;7.07;6.67;;;15.10;15.20;;;;;;4906376;29;20200;-81
2024/03/17 14:34:33;;;;;;;7.27;6.97;;;15.10;15.20;;;;;;4904512;29;20440;-80
2024/03/17 14:36:59;;;;;;;7.30;6.83;;;15.00;14.70;;;;;;4919480;29;20678;-81
2024/03/17 14:39:29;;;;;;;6.80;6.37;;;15.00;15.30;;;;;;4912833;29;20452;-81
2024/03/17 14:41:55;;;;;;;6.83;6.53;;;15.00;15.40;;;;;;4911860;29;20799;-80
2024/03/17 14:44:21;;;;;;;6.40;6.00;;;15.00;15.30;;;;;;4925155;29;20440;-81
2024/03/17 14:46:51;;;;;;;7.40;7.00;;;15.10;15.40;;;;;;4932883;29;20435;-80
2024/03/17 14:49:17;;;;;;;7.60;7.20;;;15.10;15.20;;;;;;4913934;29;20599;-80
2024/03/17 14:51:45;;;;;;;7.33;6.93;;;15.20;15.00;;;;;;4911409;29;20974;-81
2024/03/17 14:54:14;;;;;;;8.67;8.07;;;15.20;14.90;;;;;;4911455;29;20485;-80
2024/03/17 14:57:31;;;;;;;7.13;6.80;;;15.20;14.90;;;;;;4914488;29;20470;-83
2024/03/17 14:59:58;;;;;;;7.17;6.67;;;15.30;14.80;;;;;;4924296;29;20496;-84
2024/03/17 15:03:01;;;;;;;8.70;8.20;;;15.20;15.00;;;;;;4927026;29;20482;-81
2024/03/17 15:05:36;;;;;;;6.80;6.40;;;15.10;15.50;;;;;;4937994;29;20469;-83
2024/03/17 15:08:11;;;;;;;7.80;7.40;;;15.20;15.20;;;;;;4924849;29;20467;-82
2024/03/17 15:10:54;;;;;;;7.40;7.10;;;15.20;15.00;;;;;;4925263;29;20452;-83
2024/03/17 15:13:33;;;;;;;7.07;6.67;;;15.30;15.70;;;;;;4934087;29;20963;-81
2024/03/17 15:16:05;;;;;;;7.30;7.00;;;15.30;15.00;;;;;;4929250;29;20476;-80
2024/03/17 15:18:34;;;;;;;7.97;7.57;;;15.20;15.10;;;;;;4946013;23;20502;-79
2024/03/17 15:21:01;;;;;;;7.30;6.80;;;15.30;14.70;;;;;;4941345;29;20439;-81
2024/03/17 15:23:34;;;;;;;7.27;6.90;;;15.30;14.60;;;;;;4944368;29;20419;-80
2024/03/17 15:26:09;;;;;;;7.60;7.00;;;15.30;14.70;;;;;;4933000;29;20526;-78
2024/03/17 15:28:43;;;;;;;7.40;7.00;;;15.20;14.50;;;;;;4925237;29;20459;-79
2024/03/17 15:31:10;;;;;;;8.10;7.57;;;15.20;14.50;;;;;;4926133;29;20494;-78
2024/03/17 15:33:37;;;;;;;7.13;6.83;;;15.20;14.60;;;;;;4921579;29;20440;-78
2024/03/17 15:36:07;;;;;;;7.40;7.00;;;15.10;14.50;;;;;;4927394;29;20472;-79
2024/03/17 15:38:34;;;;;;;7.37;6.77;;;15.20;14.90;;;;;;4933579;29;20496;-79
2024/03/17 15:41:10;;;;;;;7.33;6.73;;;15.20;14.90;;;;;;4934126;29;20441;-80
2024/03/17 15:43:43;;;;;;;6.60;6.20;;;15.10;15.20;;;;;;4938961;29;20518;-79
2024/03/17 15:46:14;;;;;;;7.07;6.67;;;15.10;15.30;;;;;;4927374;29;20444;-79
2024/03/17 15:48:41;;;;;;;6.70;6.20;;;15.20;15.30;;;;;;4921154;29;20484;-80
2024/03/17 15:51:07;;;;;;;7.47;7.00;;;15.20;15.30;;;;;;4920345;29;20796;-79
2024/03/17 15:53:32;;;;;;;7.53;7.13;;;15.20;15.10;;;;;;4918189;29;20437;-80
2024/03/17 15:56:01;;;;;;;6.50;6.20;;;15.30;14.90;;;;;;4919576;29;20840;-80
2024/03/17 15:58:30;;;;;;;8.07;7.57;;;15.30;14.90;;;;;;4934887;29;20219;-79
2024/03/17 16:00:59;;;;;;;7.37;6.87;;;15.20;15.10;;;;;;4939075;29;20451;-80
2024/03/17 16:03:30;;;;;;;6.50;6.20;;;15.20;15.20;;;;;;4932177;29;20429;-80
2024/03/17 16:05:59;;;;;;;6.90;6.50;;;15.30;15.30;;;;;;4917629;29;20441;-79
2024/03/17 16:08:25;;;;;;;7.03;6.63;;;15.20;15.70;;;;;;4919606;29;20449;-80
2024/03/17 16:10:55;;;;;;;8.43;7.73;;;15.30;15.60;;;;;;4926106;29;20451;-79
2024/03/17 16:13:26;;;;;;;7.20;6.63;;;15.30;15.40;;;;;;4918596;29;20631;-79
2024/03/17 16:15:54;;;;;;;8.00;7.40;;;15.30;15.50;;;;;;4914281;29;20486;-79
2024/03/17 16:18:21;;;;;;;7.40;7.00;;;15.20;15.40;;;;;;4938228;29;20469;-79
2024/03/17 16:20:47;;;;;;;7.17;6.77;;;15.20;15.30;;;;;;4936977;29;20446;-80
2024/03/17 16:23:17;;;;;;;7.67;7.27;;;15.20;15.50;;;;;;4920775;29;20428;-80
2024/03/17 16:25:42;;;;;;;7.90;7.50;;;15.20;15.70;;;;;;4937212;29;20218;-81
2024/03/17 16:28:10;;;;;;;7.37;6.97;;;15.20;16.10;;;;;;4936214;29;20448;-80
2024/03/17 16:30:37;;;;;;;7.33;6.83;;;15.10;15.50;;;;;;4937641;29;20227;-79
2024/03/17 16:33:04;;;;;;;7.60;7.10;;;15.10;15.70;;;;;;4936401;29;20436;-80
2024/03/17 16:35:35;;;;;;;8.00;7.50;;;15.10;15.80;;;;;;4920117;29;20467;-79
2024/03/17 16:38:02;;;;;;;6.90;6.50;;;15.10;15.90;;;;;;4935666;29;20972;-80
2024/03/17 16:40:27;;;;;;;7.20;6.90;;;15.10;16.00;;;;;;4934487;29;20439;-79
2024/03/17 16:42:55;;;;;;;8.30;7.70;;;15.10;15.90;;;;;;4926423;29;20911;-80
2024/03/17 16:45:27;;;;;;;7.97;7.47;;;15.00;15.90;;;;;;4936154;29;20200;-79
2024/03/17 16:47:53;;;;;;;7.27;6.87;;;15.00;15.80;;;;;;4911128;29;20441;-81
2024/03/17 16:50:19;;;;;;;7.47;7.07;;;15.00;15.70;;;;;;4916140;29;20424;-79
2024/03/17 16:52:45;;;;;;;6.87;6.23;;;15.00;15.80;;;;;;4903441;29;20425;-80
2024/03/17 16:55:10;;;;;;;7.40;6.90;;;15.00;15.80;;;;;;4932531;29;20806;-79
2024/03/17 16:57:36;;;;;;;17.20;15.80;;;15.00;15.80;;;;;;4917339;29;20591;-79
2024/03/17 17:00:13;;;;;;;16.30;15.20;;;15.00;15.60;;;;;;4916583;29;20196;-78
2024/03/17 17:02:43;;;;;;;10.27;9.37;;;15.00;15.80;;;;;;4922707;29;20712;-79
2024/03/17 17:05:12;;;;;;;14.23;13.33;;;15.00;16.40;;;;;;4899879;29;20492;-79
2024/03/17 17:07:39;;;;;;;12.52;11.68;;;15.00;16.00;;;;;;4899559;29;20483;-78
2024/03/17 17:10:07;;;;;;;8.73;8.23;;;15.00;16.20;;;;;;4923819;29;20279;-80
2024/03/17 17:12:33;;;;;;;7.40;6.90;;;15.00;16.20;;;;;;4926797;29;20474;-81
2024/03/17 17:14:59;;;;;;;7.47;6.97;;;15.00;16.30;;;;;;4930736;29;20969;-79
2024/03/17 17:17:24;;;;;;;10.27;9.53;;;15.00;16.40;;;;;;4901244;29;20212;-80
2024/03/17 17:19:53;;;;;;;7.30;7.00;;;15.00;16.40;;;;;;4916562;29;20185;-79
2024/03/17 17:22:18;;;;;;;7.73;7.33;;;15.00;16.30;;;;;;4925479;29;20602;-79
2024/03/17 17:24:45;;;;;;;8.30;7.70;;;14.90;16.30;;;;;;4924816;29;20491;-80
2024/03/17 17:27:13;;;;;;;7.70;7.30;;;14.90;16.40;;;;;;4926929;29;20209;-80
2024/03/17 17:29:39;;;;;;;7.23;6.83;;;14.90;16.60;;;;;;4927628;29;20486;-78
2024/03/17 17:32:09;;;;;;;7.47;7.07;;;14.90;16.50;;;;;;4935307;29;20573;-79
2024/03/17 17:34:35;;;;;;;7.03;6.63;;;14.90;16.50;;;;;;4935101;29;20819;-80
2024/03/17 17:37:02;;;;;;;6.77;6.37;;;14.90;16.50;;;;;;4919382;29;20551;-79
2024/03/17 17:39:28;;;;;;;7.67;7.20;;;14.80;16.60;;;;;;4936949;29;20439;-79
2024/03/17 17:41:54;;;;;;;8.60;7.80;;;14.80;16.50;;;;;;4934795;29;20843;-81
2024/03/17 17:44:19;;;;;;;9.17;8.47;;;14.80;16.70;;;;;;4930203;29;20566;-79
2024/03/17 17:46:45;;;;;;;8.50;8.00;;;14.80;17.70;;;;;;4918975;29;20217;-78
2024/03/17 17:49:11;;;;;;;8.17;7.67;;;14.80;17.00;;;;;;4924477;29;20212;-78
2024/03/17 17:51:37;;;;;;;8.07;7.47;;;14.80;17.00;;;;;;4918242;29;20249;-78
2024/03/17 17:54:03;;;;;;;8.93;8.33;;;14.80;17.10;;;;;;4923929;29;20232;-78
2024/03/17 17:56:30;;;;;;;9.03;8.53;;;14.80;17.00;;;;;;4919973;29;20461;-78
2024/03/17 17:58:55;;;;;;;8.43;8.00;;;14.80;17.20;;;;;;4913145;29;20192;-78
2024/03/17 18:01:24;;;;;;;8.83;8.23;;;14.70;16.90;;;;;;4929582;29;20429;-78
2024/03/17 18:03:52;;;;;;;9.10;8.50;;;14.80;17.10;;;;;;4914321;29;20181;-79
2024/03/17 18:06:18;;;;;;;8.30;7.90;;;14.70;16.70;;;;;;4931167;29;20956;-77
2024/03/17 18:08:44;;;;;;;9.03;8.30;;;14.70;16.80;;;;;;4916934;29;20929;-79
2024/03/17 18:11:18;;;;;;;8.43;7.70;;;14.70;16.90;;;;;;4922876;29;20433;-79
2024/03/17 18:13:44;;;;;;;8.27;7.77;;;14.70;17.00;;;;;;4914224;29;20524;-79
2024/03/17 18:16:10;;;;;;;9.50;8.80;;;14.70;17.20;;;;;;4917839;29;20698;-79
2024/03/17 18:18:36;;;;;;;9.00;8.50;;;14.70;17.40;;;;;;4928229;29;20865;-80
2024/03/17 18:21:03;;;;;;;9.13;8.63;;;14.70;17.50;;;;;;4933488;29;20184;-80
2024/03/17 18:23:30;;;;;;;8.57;8.07;;;14.70;17.50;;;;;;4930285;29;20431;-80
2024/03/17 18:25:57;;;;;;;9.40;8.80;;;14.70;17.70;;;;;;4920673;29;20460;-81
2024/03/17 18:28:24;;;;;;;9.07;8.50;;;14.70;17.70;;;;;;4926549;29;20455;-80
2024/03/17 18:30:50;;;;;;;8.90;8.30;;;14.70;18.10;;;;;;4912972;29;20484;-78
2024/03/17 18:33:16;;;;;;;9.03;8.40;;;14.70;18.10;;;;;;4909472;29;20433;-80
2024/03/17 18:35:53;;;;;;;9.47;8.77;;;14.70;18.10;;;;;;4925683;29;20475;-79
2024/03/17 18:38:20;;;;;;;9.60;9.00;;;14.70;18.10;;;;;;4911125;29;20516;-80
2024/03/17 18:40:48;;;;;;;10.30;9.70;;;14.60;18.00;;;;;;4926508;29;20468;-80
2024/03/17 18:43:14;;;;;;;14.40;13.40;;;14.60;18.00;;;;;;4918923;29;21052;-79
2024/03/17 18:45:40;;;;;;;12.57;11.67;;;14.60;18.00;;;;;;4932783;29;20944;-80
2024/03/17 18:48:06;;;;;;;12.17;11.53;;;14.60;18.00;;;;;;4926519;29;20447;-80
2024/03/17 18:50:31;;;;;;;11.17;10.53;;;14.50;18.00;;;;;;4923161;29;20630;-79
2024/03/17 18:52:57;;;;;;;11.57;10.77;;;14.50;18.00;;;;;;4910195;29;20184;-79
2024/03/17 18:55:24;;;;;;;10.83;10.03;;;14.50;18.00;;;;;;4916924;29;20420;-80
2024/03/17 18:57:50;;;;;;;10.97;10.37;;;14.50;18.00;;;;;;4919548;29;20622;-79
2024/03/17 19:00:16;;;;;;;10.63;9.90;;;14.50;18.00;;;;;;4902489;29;20413;-80
2024/03/17 19:02:49;;;;;;;12.00;11.20;;;14.50;18.00;;;;;;4923039;29;20176;-79
2024/03/17 19:05:16;;;;;;;12.33;11.53;;;14.50;18.00;;;;;;4921080;29;20452;-80
2024/03/17 19:07:42;;;;;;;12.97;12.10;;;14.50;18.00;;;;;;4917360;29;20437;-79
2024/03/17 19:10:09;;;;;;;11.83;11.13;;;14.40;18.20;;;;;;4903119;29;20421;-80
2024/03/17 19:12:35;;;;;;;12.90;12.00;;;14.40;18.70;;;;;;4905731;29;20481;-81
2024/03/17 19:15:03;;;;;;;14.70;13.60;;;14.40;18.40;;;;;;4916057;29;20458;-80
2024/03/17 19:17:28;;;;;;;13.03;11.90;;;14.40;18.30;;;;;;4899292;29;20840;-78
2024/03/17 19:19:57;;;;;;;11.40;10.60;;;14.40;18.30;;;;;;4917950;29;20496;-79
2024/03/17 19:22:24;;;;;;;11.50;10.80;;;14.50;18.40;;;;;;4917099;29;20177;-79
2024/03/17 19:24:53;;;;;;;11.70;11.03;;;14.40;18.00;;;;;;4918117;29;20421;-79
2024/03/17 19:27:19;;;;;;;11.37;10.57;;;14.50;18.00;;;;;;4903652;29;20610;-81
2024/03/17 19:29:45;;;;;;;11.20;10.60;;;14.50;18.00;;;;;;4901960;29;20965;-81
2024/03/17 19:32:12;;;;;;;13.30;12.20;;;14.40;18.40;;;;;;4917380;29;20181;-79
2024/03/17 19:34:38;;;;;;;11.17;10.40;;;14.40;18.50;;;;;;4904504;29;20596;-79
2024/03/17 19:37:05;;;;;;;12.17;11.30;;;14.40;18.50;;;;;;4919324;29;20527;-79
2024/03/17 19:39:31;;;;;;;14.13;13.23;;;14.30;18.60;;;;;;4905801;29;20645;-78